createdAt,value
2023-09-05T00:04:29.745Z,15.91
2023-09-05T00:09:28.564Z,16.20
2023-09-05T00:14:27.439Z,15.94
2023-09-05T00:19:26.211Z,15.86
2023-09-05T00:24:34.441Z,15.47
2023-09-05T00:29:33.358Z,15.63
2023-09-05T00:34:34.728Z,15.20
2023-09-05T00:39:35.533Z,15.32
2023-09-05T00:44:34.455Z,15.35
2023-09-05T00:49:40.202Z,15.24
2023-09-05T00:54:39.177Z,15.25
2023-09-05T00:59:39.331Z,15.38
2023-09-05T01:04:38.484Z,15.52
2023-09-05T01:09:51.568Z,15.64
2023-09-05T01:14:50.358Z,15.74
2023-09-05T01:19:52.164Z,15.88
2023-09-05T01:24:51.587Z,15.94
2023-09-05T01:29:51.466Z,16.01
2023-09-05T01:34:50.444Z,15.93
2023-09-05T01:39:49.348Z,15.94
2023-09-05T01:44:48.125Z,15.88
2023-09-05T01:49:46.868Z,15.83
2023-09-05T01:54:45.726Z,15.85
2023-09-05T01:59:44.472Z,15.94
2023-09-05T02:04:43.509Z,15.78
2023-09-05T02:09:42.353Z,15.80
2023-09-05T02:14:48.856Z,15.77
2023-09-05T02:19:47.862Z,15.83
2023-09-05T02:24:46.710Z,15.71
2023-09-05T02:29:57.307Z,15.60
2023-09-05T02:34:57.501Z,15.51
2023-09-05T02:39:56.430Z,15.41
2023-09-05T02:44:55.221Z,15.45
2023-09-05T02:49:54.444Z,15.52
2023-09-05T02:54:53.421Z,15.44
2023-09-05T02:59:53.756Z,15.41
2023-09-05T03:04:56.118Z,15.28
2023-09-05T03:09:55.103Z,15.02
2023-09-05T03:14:56.196Z,15.10
2023-09-05T03:19:56.336Z,15.23
2023-09-05T03:24:55.339Z,15.39
2023-09-05T03:29:55.704Z,15.33
2023-09-05T03:34:54.579Z,15.33
2023-09-05T03:39:53.589Z,15.21
2023-09-05T03:44:52.728Z,15.16
2023-09-05T03:49:51.562Z,15.23
2023-09-05T03:54:50.433Z,15.14
2023-09-05T03:59:49.307Z,15.36
2023-09-05T04:04:48.247Z,15.17
2023-09-05T04:09:48.033Z,15.28
2023-09-05T04:14:49.302Z,15.12
2023-09-05T04:19:52.963Z,14.98
2023-09-05T04:24:53.686Z,15.93
2023-09-05T04:29:55.648Z,16.68
2023-09-05T04:34:56.807Z,17.11
2023-09-05T04:39:55.745Z,17.06
2023-09-05T04:44:54.655Z,17.17
2023-09-05T04:49:55.514Z,17.15
2023-09-05T04:55:00.622Z,17.26
2023-09-05T05:00:00.616Z,17.38
2023-09-05T05:05:00.105Z,17.05
2023-09-05T05:09:58.987Z,16.46
2023-09-05T05:14:57.816Z,15.86
2023-09-05T05:19:57.757Z,15.90
2023-09-05T05:24:56.517Z,15.82
2023-09-05T05:29:55.319Z,15.88
2023-09-05T05:34:54.163Z,15.83
2023-09-05T05:39:52.994Z,16.10
2023-09-05T05:44:51.783Z,15.94
2023-09-05T05:49:50.525Z,16.20
2023-09-05T05:54:49.341Z,16.40
2023-09-05T05:59:48.124Z,16.62
2023-09-05T06:04:46.914Z,16.63
2023-09-05T06:09:45.822Z,16.75
2023-09-05T06:14:44.589Z,17.01
2023-09-05T06:19:43.493Z,17.09
2023-09-05T06:24:42.286Z,17.32
2023-09-05T06:29:41.035Z,17.44
2023-09-05T06:34:41.484Z,17.75
2023-09-05T06:39:40.207Z,17.99
2023-09-05T06:44:38.946Z,18.22
2023-09-05T06:49:37.871Z,18.37
2023-09-05T06:54:37.005Z,18.67
2023-09-05T06:59:36.932Z,18.79
2023-09-05T07:04:38.409Z,18.88
2023-09-05T07:09:37.372Z,19.12
2023-09-05T07:14:36.347Z,19.30
2023-09-05T07:19:35.116Z,19.51
2023-09-05T07:24:33.947Z,19.74
2023-09-05T07:29:34.553Z,20.07
2023-09-05T07:34:33.323Z,20.21
2023-09-05T07:39:32.216Z,20.36
2023-09-05T07:44:30.931Z,20.54
2023-09-05T07:49:32.393Z,20.70
2023-09-05T07:54:31.320Z,21.04
2023-09-05T07:59:30.340Z,21.10
2023-09-05T08:04:30.518Z,21.40
2023-09-05T08:09:29.306Z,21.66
2023-09-05T08:14:28.435Z,21.71
2023-09-05T08:19:27.231Z,21.73
2023-09-05T08:24:26.017Z,21.81
2023-09-05T08:29:24.880Z,21.87
2023-09-05T08:34:23.893Z,21.98
2023-09-05T08:39:23.108Z,22.08
2023-09-05T08:44:22.224Z,22.13
2023-09-05T08:49:21.149Z,22.00
2023-09-05T08:54:20.323Z,22.10
2023-09-05T08:59:19.368Z,22.18
2023-09-05T09:04:20.402Z,22.22
2023-09-05T09:09:42.187Z,22.23
2023-09-05T09:14:40.985Z,22.12
2023-09-05T09:19:39.859Z,22.30
2023-09-05T09:24:40.688Z,22.52
2023-09-05T09:29:40.933Z,22.50
2023-09-05T09:34:42.206Z,22.46
2023-09-05T09:39:41.073Z,22.55
2023-09-05T09:44:39.830Z,22.69
2023-09-05T09:49:44.121Z,22.76
2023-09-05T09:54:46.437Z,22.90
2023-09-05T09:59:55.354Z,23.03
2023-09-05T10:04:55.759Z,22.89
2023-09-05T10:09:55.486Z,23.02
2023-09-05T10:14:56.368Z,23.02
2023-09-05T10:19:55.604Z,23.22
2023-09-05T10:24:54.869Z,23.34
2023-09-05T10:29:54.125Z,23.27
2023-09-05T10:35:04.027Z,23.36
2023-09-05T10:40:08.970Z,23.22
2023-09-05T10:45:38.553Z,23.54
2023-09-05T10:51:05.718Z,23.42
2023-09-05T10:56:04.877Z,23.32
2023-09-05T11:01:30.501Z,23.58
2023-09-05T11:06:29.536Z,23.68
2023-09-05T11:11:28.970Z,23.78
2023-09-05T11:16:28.298Z,23.91
2023-09-05T11:21:27.253Z,23.98
2023-09-05T11:26:26.392Z,24.07
2023-09-05T11:31:26.535Z,24.05
2023-09-05T11:36:25.690Z,24.07
2023-09-05T11:41:38.277Z,24.26
2023-09-05T11:46:41.750Z,24.26
2023-09-05T11:51:40.650Z,24.46
2023-09-05T11:56:39.655Z,24.58
2023-09-05T12:01:38.641Z,24.86
2023-09-05T12:06:37.639Z,24.63
2023-09-05T12:11:36.474Z,24.37
2023-09-05T12:16:35.363Z,24.64
2023-09-05T12:21:45.811Z,24.75
2023-09-05T12:26:44.613Z,24.93
2023-09-05T12:31:45.869Z,25.04
2023-09-05T12:36:44.855Z,25.29
2023-09-05T12:41:43.659Z,25.22
2023-09-05T12:46:44.094Z,25.28
2023-09-05T12:51:43.023Z,25.20
2023-09-05T12:56:44.966Z,25.43
2023-09-05T13:01:44.476Z,25.56
2023-09-05T13:06:48.362Z,25.43
2023-09-05T13:11:48.433Z,25.40
2023-09-05T13:16:47.538Z,25.73
2023-09-05T13:21:46.452Z,25.51
2023-09-05T13:26:45.258Z,25.45
2023-09-05T13:31:44.232Z,25.61
2023-09-05T13:36:43.760Z,25.74
2023-09-05T13:41:42.539Z,25.68
2023-09-05T13:46:41.333Z,25.88
2023-09-05T13:51:40.368Z,25.97
2023-09-05T13:56:40.958Z,25.72
2023-09-05T14:01:39.819Z,25.68
2023-09-05T14:06:40.949Z,25.68
2023-09-05T14:11:40.610Z,25.45
2023-09-05T14:16:41.083Z,25.48
2023-09-05T14:21:39.992Z,25.53
2023-09-05T14:26:38.911Z,25.54
2023-09-05T14:31:38.028Z,25.57
2023-09-05T14:36:37.330Z,25.60
2023-09-05T14:41:36.191Z,25.42
2023-09-05T14:46:35.333Z,25.27
2023-09-05T14:51:34.284Z,25.40
2023-09-05T14:56:33.148Z,25.33
2023-09-05T15:01:32.032Z,25.22
2023-09-05T15:06:30.918Z,25.25
2023-09-05T15:11:29.846Z,25.19
2023-09-05T15:16:29.825Z,25.21
2023-09-05T15:21:29.259Z,25.07
2023-09-05T15:26:28.372Z,24.99
2023-09-05T15:31:27.271Z,24.93
2023-09-05T15:36:26.249Z,24.87
2023-09-05T15:41:25.101Z,24.78
2023-09-05T15:46:24.400Z,24.85
2023-09-05T15:51:23.606Z,24.78
2023-09-05T15:56:23.052Z,24.57
2023-09-05T16:01:22.113Z,24.57
2023-09-05T16:06:21.058Z,24.47
2023-09-05T16:11:21.568Z,24.39
2023-09-05T16:16:20.444Z,24.32
2023-09-05T16:21:24.149Z,24.18
2023-09-05T16:26:24.168Z,23.95
2023-09-05T16:31:24.578Z,23.92
2023-09-05T16:36:23.602Z,23.63
2023-09-05T16:41:24.106Z,23.48
2023-09-05T16:46:23.001Z,23.48
2023-09-05T16:51:23.067Z,23.30
2023-09-05T16:56:22.152Z,23.07
2023-09-05T17:01:22.564Z,22.96
2023-09-05T17:06:21.608Z,22.89
2023-09-05T17:11:20.675Z,22.78
2023-09-05T17:16:19.555Z,22.49
2023-09-05T17:21:19.058Z,22.38
2023-09-05T17:26:17.973Z,22.21
2023-09-05T17:31:16.903Z,22.04
2023-09-05T17:36:16.010Z,21.78
2023-09-05T17:41:14.825Z,21.71
2023-09-05T17:46:13.790Z,21.49
2023-09-05T17:51:12.905Z,21.46
2023-09-05T17:56:11.964Z,21.34
2023-09-05T18:01:11.858Z,21.31
2023-09-05T18:06:11.557Z,21.29
2023-09-05T18:11:10.783Z,21.10
2023-09-05T18:16:10.646Z,21.08
2023-09-05T18:21:09.951Z,20.98
2023-09-05T18:26:10.722Z,21.01
2023-09-05T18:31:11.877Z,20.85
2023-09-05T18:36:11.414Z,20.59
2023-09-05T18:41:20.194Z,20.33
2023-09-05T18:46:19.441Z,20.16
2023-09-05T18:51:19.314Z,20.00
2023-09-05T18:56:19.461Z,19.75
2023-09-05T19:01:20.176Z,19.66
2023-09-05T19:06:19.312Z,19.62
2023-09-05T19:11:19.385Z,19.37
2023-09-05T19:16:19.522Z,19.29
2023-09-05T19:21:19.278Z,19.33
2023-09-05T19:26:18.833Z,19.40
2023-09-05T19:31:17.816Z,19.31
2023-09-05T19:36:16.822Z,19.07
2023-09-05T19:41:16.304Z,19.26
2023-09-05T19:46:16.405Z,19.28
2023-09-05T19:51:15.326Z,19.10
2023-09-05T19:56:14.144Z,19.09
2023-09-05T20:01:15.132Z,18.94
2023-09-05T20:06:14.728Z,18.97
2023-09-05T20:11:13.556Z,18.72
2023-09-05T20:16:14.076Z,18.45
2023-09-05T20:21:15.986Z,18.20
2023-09-05T20:26:15.719Z,18.36
2023-09-05T20:31:16.342Z,18.10
2023-09-05T20:36:15.289Z,17.80
2023-09-05T20:41:14.599Z,17.79
2023-09-05T20:46:14.696Z,17.47
2023-09-05T20:51:16.333Z,17.46
2023-09-05T20:56:17.340Z,17.30
2023-09-05T21:01:18.326Z,17.09
2023-09-05T21:06:17.282Z,17.22
2023-09-05T21:11:16.081Z,17.16
2023-09-05T21:16:15.176Z,17.14
2023-09-05T21:21:14.210Z,17.18
2023-09-05T21:26:12.967Z,17.14
2023-09-05T21:31:13.524Z,17.19
2023-09-05T21:36:12.571Z,17.08
2023-09-05T21:41:11.464Z,17.14
2023-09-05T21:46:13.774Z,17.07
2023-09-05T21:51:27.796Z,16.98
2023-09-05T21:56:26.686Z,16.92
2023-09-05T22:01:25.453Z,16.95
2023-09-05T22:06:25.155Z,16.82
2023-09-05T22:11:24.867Z,16.86
2023-09-05T22:16:24.451Z,16.94
2023-09-05T22:21:26.241Z,17.01
2023-09-05T22:26:25.280Z,16.92
2023-09-05T22:31:24.646Z,16.91
2023-09-05T22:36:24.398Z,16.72
2023-09-05T22:41:24.465Z,16.83
2023-09-05T22:46:23.545Z,16.58
2023-09-05T22:51:22.564Z,16.40
2023-09-05T22:56:21.375Z,16.32
2023-09-05T23:01:20.622Z,16.13
2023-09-05T23:06:19.556Z,15.94
2023-09-05T23:11:18.416Z,16.21
2023-09-05T23:16:17.625Z,16.17
2023-09-05T23:21:16.575Z,16.18
2023-09-05T23:26:16.552Z,16.15
2023-09-05T23:31:15.769Z,16.23
2023-09-05T23:36:14.720Z,16.02
2023-09-05T23:41:13.612Z,16.03
2023-09-05T23:46:12.384Z,16.06
2023-09-05T23:51:11.321Z,16.09
2023-09-05T23:56:10.136Z,15.74
